Hadlock, Washington
Current Conditions -  °F | °C
As of 6:56 PM on Sunday 21 Dec 2014 (Local Time) from KNUW Reporting Station
Overcast Overcast  
Wind Chill: 50°   Ceiling: 15000
Heat Index: 50°   Visibility: 10mi
Dew Point: 44°   Wind: 5mph
Humidity: 80%   Direction: 110°ESE
Pressure: 30.05"   Gusts: NA
Location:  48.0288°N, 122.77°W
Report Text: KNUW 220256Z 11004KT 10SM OVC150 10/07 A3005 RMK AO2 SLP180 T01000067 53016 VISNO E $
Loading
Personal Weather Stations






























Interactive Weather Map New forecast layout! Learn more

10-Day Weather Forecast

Advertisements
Track Severe Weather on mobile